Time;durP1;ratioP1;P1;durP2;ratioP2;P2;SDS_P1;SDS_P2;PMS_P1;PMS_P2;Temp;Humidity;BMP_temperature;BMP_pressure;BME280_temperature;BME280_humidity;BME280_pressure;Samples;Min_cycle;Max_cycle;Signal;HPM_P1;HPM_P2
2022/04/10 00:01:24;;;;;;;4.05;1.80;;;;;;;2.38;86.12;100333.09;4917455;29;20479;-74
2022/04/10 00:03:49;;;;;;;4.85;2.20;;;;;;;2.38;85.45;100340.91;4916265;29;20032;-74
2022/04/10 00:06:15;;;;;;;4.40;1.80;;;;;;;2.37;85.47;100334.81;4917408;29;20036;-74
2022/04/10 00:08:40;;;;;;;4.35;1.85;;;;;;;2.34;85.63;100336.50;4915354;29;20036;-74
2022/04/10 00:11:06;;;;;;;3.25;1.48;;;;;;;2.39;85.98;100343.56;4916039;29;20051;-74
2022/04/10 00:13:32;;;;;;;5.53;1.90;;;;;;;2.43;85.65;100344.50;4916804;29;20131;-74
2022/04/10 00:15:57;;;;;;;4.07;1.83;;;;;;;2.44;85.46;100343.69;4917303;29;20044;-74
2022/04/10 00:18:22;;;;;;;3.80;1.77;;;;;;;2.50;85.25;100341.22;4917350;29;20095;-74
2022/04/10 00:20:48;;;;;;;4.38;1.45;;;;;;;2.50;85.09;100342.94;4917138;29;20119;-73
2022/04/10 00:23:14;;;;;;;5.50;1.70;;;;;;;2.53;85.49;100345.63;4916684;29;20092;-74
2022/04/10 00:25:39;;;;;;;4.28;2.05;;;;;;;2.53;85.17;100346.47;4916669;29;20116;-74
2022/04/10 00:28:04;;;;;;;4.18;1.52;;;;;;;2.54;84.83;100344.75;4917067;29;20032;-74
2022/04/10 00:30:32;;;;;;;4.15;1.50;;;;;;;2.57;84.86;100348.31;4917180;29;20483;-74
2022/04/10 00:32:57;;;;;;;4.07;1.50;;;;;;;2.68;85.00;100345.97;4913455;29;20111;-74
2022/04/10 00:35:23;;;;;;;3.28;1.40;;;;;;;2.76;84.71;100353.97;4915507;29;20032;-73
2022/04/10 00:37:48;;;;;;;4.43;1.75;;;;;;;2.83;84.44;100355.88;4916971;29;20063;-74
2022/04/10 00:40:14;;;;;;;3.60;1.70;;;;;;;2.92;84.39;100358.66;4913665;29;20079;-74
2022/04/10 00:42:45;;;;;;;3.80;1.67;;;;;;;3.08;83.52;100358.13;4915192;29;20047;-74
2022/04/10 00:45:11;;;;;;;5.00;1.58;;;;;;;3.21;83.01;100361.00;4913430;29;20091;-74
2022/04/10 00:47:36;;;;;;;4.15;1.70;;;;;;;3.32;82.03;100358.63;4915626;29;20032;-73
2022/04/10 00:50:06;;;;;;;4.90;1.73;;;;;;;3.38;81.86;100357.03;4916957;29;20194;-73
2022/04/10 00:52:32;;;;;;;4.50;1.55;;;;;;;3.41;81.28;100356.22;4916119;29;20402;-73
2022/04/10 00:54:58;;;;;;;2.90;1.45;;;;;;;3.47;80.91;100357.19;4916509;29;20043;-73
2022/04/10 00:57:24;;;;;;;4.05;1.63;;;;;;;3.54;80.41;100357.31;4915248;29;20043;-74
2022/04/10 00:59:49;;;;;;;2.03;1.10;;;;;;;3.59;80.40;100359.19;4916295;29;20039;-74
2022/04/10 01:02:15;;;;;;;3.25;1.15;;;;;;;3.57;79.91;100363.50;4915174;29;20126;-74
2022/04/10 01:04:42;;;;;;;3.80;1.40;;;;;;;3.55;79.41;100365.19;4916452;29;20039;-74
2022/04/10 01:07:07;;;;;;;7.00;1.55;;;;;;;3.55;79.69;100366.91;4914962;29;20567;-74
2022/04/10 01:09:38;;;;;;;3.05;1.35;;;;;;;3.56;79.29;100356.50;4915050;29;20079;-74
2022/04/10 01:12:04;;;;;;;4.47;1.17;;;;;;;3.65;79.10;100363.63;4915025;29;20103;-74
2022/04/10 01:14:30;;;;;;;3.08;1.40;;;;;;;3.78;78.52;100363.00;4929050;29;20045;-74
2022/04/10 01:16:57;;;;;;;4.07;1.17;;;;;;;3.76;78.33;100364.72;4915097;29;20036;-74
2022/04/10 01:19:23;;;;;;;4.97;1.40;;;;;;;3.85;77.70;100372.72;4923635;29;20032;-74
2022/04/10 01:21:51;;;;;;;4.15;1.48;;;;;;;3.86;77.42;100369.25;4914765;29;20518;-74
2022/04/10 01:24:17;;;;;;;2.55;1.13;;;;;;;3.88;77.32;100364.94;4923405;29;20028;-74
2022/04/10 01:26:44;;;;;;;4.40;1.42;;;;;;;3.88;77.20;100364.06;4913581;29;20025;-74
2022/04/10 01:29:12;;;;;;;4.70;1.38;;;;;;;3.87;76.81;100368.38;4914919;29;20036;-74
2022/04/10 01:31:40;;;;;;;4.32;1.40;;;;;;;3.93;76.67;100370.25;4914700;29;20062;-73
2022/04/10 01:34:08;;;;;;;4.75;1.50;;;;;;;4.00;76.41;100369.50;4916054;29;20078;-74
2022/04/10 01:36:37;;;;;;;3.80;1.55;;;;;;;3.97;76.68;100384.25;4914791;29;20190;-74
2022/04/10 01:39:05;;;;;;;4.50;1.25;;;;;;;3.92;75.86;100374.56;4914563;29;20044;-74
2022/04/10 01:41:34;;;;;;;5.40;1.20;;;;;;;3.86;76.50;100377.09;4913143;29;20515;-74
2022/04/10 01:44:01;;;;;;;3.10;1.30;;;;;;;3.85;76.38;100377.03;4914644;29;20040;-74
2022/04/10 01:46:28;;;;;;;2.58;1.17;;;;;;;3.74;76.22;100376.84;4914687;29;20032;-74
2022/04/10 01:48:54;;;;;;;4.20;1.30;;;;;;;3.68;76.64;100382.84;4914523;29;20046;-74
2022/04/10 01:51:20;;;;;;;5.18;1.45;;;;;;;3.72;76.42;100373.31;4915472;29;20044;-74
2022/04/10 01:53:46;;;;;;;3.10;1.00;;;;;;;3.73;76.43;100380.31;4914414;29;20031;-74
2022/04/10 01:56:12;;;;;;;3.42;1.20;;;;;;;3.71;75.93;100382.00;4915102;29;20078;-74
2022/04/10 01:58:41;;;;;;;3.35;1.20;;;;;;;3.70;76.19;100375.03;4910720;29;20040;-74
2022/04/10 02:01:08;;;;;;;3.63;1.10;;;;;;;3.70;76.14;100385.50;4914124;29;20123;-74
2022/04/10 02:03:34;;;;;;;5.95;1.30;;;;;;;3.65;76.15;100387.13;4914975;29;20035;-74
2022/04/10 02:06:00;;;;;;;3.47;1.15;;;;;;;3.66;76.07;100373.22;4910953;29;20028;-74
2022/04/10 02:08:27;;;;;;;5.15;1.30;;;;;;;3.64;76.02;100380.13;4912693;29;20036;-74
2022/04/10 02:10:52;;;;;;;6.13;1.38;;;;;;;3.63;76.05;100375.78;4911356;29;20047;-74
2022/04/10 02:13:19;;;;;;;5.47;1.40;;;;;;;3.61;75.85;100380.06;4913956;29;20036;-74
2022/04/10 02:15:45;;;;;;;4.45;1.40;;;;;;;3.62;75.83;100379.25;4921550;29;20119;-73
2022/04/10 02:18:10;;;;;;;6.15;1.50;;;;;;;3.62;75.99;100381.84;4922597;29;20072;-74
2022/04/10 02:20:35;;;;;;;6.20;1.42;;;;;;;3.61;75.59;100386.16;4912875;29;20044;-73
2022/04/10 02:23:02;;;;;;;3.38;1.25;;;;;;;3.57;76.16;100386.09;4913899;29;20399;-74
2022/04/10 02:25:27;;;;;;;5.45;1.00;;;;;;;3.56;75.95;100381.72;4913921;29;20039;-74
2022/04/10 02:27:53;;;;;;;5.22;1.23;;;;;;;3.60;75.82;100396.59;4915248;29;20498;-73
2022/04/10 02:30:19;;;;;;;6.13;1.35;;;;;;;3.64;75.91;100393.19;4928512;29;20032;-73
2022/04/10 02:32:45;;;;;;;3.83;1.30;;;;;;;3.61;75.93;100400.94;4913814;29;20383;-74
2022/04/10 02:35:11;;;;;;;3.08;1.15;;;;;;;3.55;75.59;100393.88;4913563;29;20048;-73
2022/04/10 02:37:37;;;;;;;5.68;1.23;;;;;;;3.50;76.04;100393.78;4914606;29;20036;-74
2022/04/10 02:40:05;;;;;;;5.82;1.52;;;;;;;3.44;76.26;100392.78;4913844;29;20039;-73
2022/04/10 02:42:33;;;;;;;4.03;1.40;;;;;;;3.32;76.39;100398.63;4913576;29;20038;-73
2022/04/10 02:45:01;;;;;;;3.22;1.30;;;;;;;3.20;76.86;100396.66;4913772;29;20039;-74
2022/04/10 02:47:26;;;;;;;4.63;1.30;;;;;;;3.05;77.19;100397.19;4914977;29;20170;-74
2022/04/10 02:49:51;;;;;;;4.70;1.45;;;;;;;2.96;77.94;100396.09;4928499;29;20088;-74
2022/04/10 02:52:17;;;;;;;5.43;1.38;;;;;;;2.86;77.99;100400.25;4914695;29;20036;-74
2022/04/10 02:54:44;;;;;;;3.47;1.23;;;;;;;2.89;78.33;100400.31;4913618;29;20036;-73
2022/04/10 02:57:09;;;;;;;5.18;1.17;;;;;;;2.92;78.40;100397.75;4913660;29;20499;-73
2022/04/10 02:59:35;;;;;;;4.95;1.23;;;;;;;2.90;78.05;100393.38;4912327;29;20040;-73
2022/04/10 03:02:00;;;;;;;5.97;1.88;;;;;;;2.81;77.66;100402.72;4913517;29;20040;-73
2022/04/10 03:04:26;;;;;;;6.60;1.25;;;;;;;2.74;78.39;100399.94;4913350;29;20167;-74
2022/04/10 03:06:51;;;;;;;7.25;1.75;;;;;;;2.72;78.35;100401.63;4913609;29;20036;-73
2022/04/10 03:09:17;;;;;;;4.20;1.45;;;;;;;2.69;78.59;100406.78;4911722;29;20051;-73
2022/04/10 03:11:43;;;;;;;4.80;1.10;;;;;;;2.71;78.85;100402.50;4913358;29;20040;-73
2022/04/10 03:14:09;;;;;;;7.05;1.98;;;;;;;2.62;78.40;100401.44;4913475;29;20087;-73
2022/04/10 03:16:35;;;;;;;7.38;2.20;;;;;;;2.53;79.13;100398.59;4913413;29;20032;-73
2022/04/10 03:19:00;;;;;;;8.07;2.17;;;;;;;2.51;79.23;100408.09;4912563;29;20032;-73
2022/04/10 03:21:26;;;;;;;4.43;1.42;;;;;;;2.57;79.40;100408.25;4916944;29;20024;-73
2022/04/10 03:23:52;;;;;;;4.40;1.60;;;;;;;2.70;79.26;100411.13;4913451;29;20039;-74
2022/04/10 03:26:18;;;;;;;4.53;1.27;;;;;;;2.77;79.12;100407.84;4912136;29;20024;-73
2022/04/10 03:28:43;;;;;;;4.53;1.40;;;;;;;2.73;78.50;100417.31;4911513;29;20028;-73
2022/04/10 03:31:09;;;;;;;4.60;1.38;;;;;;;2.78;79.04;100409.63;4911728;29;20033;-74
2022/04/10 03:33:35;;;;;;;6.18;1.52;;;;;;;2.84;78.66;100414.97;4913320;29;20036;-74
2022/04/10 03:36:00;;;;;;;3.35;1.30;;;;;;;2.80;78.63;100418.31;4914488;29;20086;-73
2022/04/10 03:38:26;;;;;;;5.45;1.70;;;;;;;2.71;79.01;100413.78;4925786;29;20044;-74
2022/04/10 03:40:51;;;;;;;8.40;1.63;;;;;;;2.58;79.20;100425.63;4913106;29;20036;-74
2022/04/10 03:43:17;;;;;;;5.38;1.50;;;;;;;2.42;79.26;100421.78;4921589;29;20415;-73
2022/04/10 03:45:42;;;;;;;6.93;1.38;;;;;;;2.34;80.01;100438.06;4912498;29;20067;-74
2022/04/10 03:48:09;;;;;;;6.32;1.92;;;;;;;2.34;80.41;100431.13;4913112;29;20039;-74
2022/04/10 03:50:35;;;;;;;6.93;1.67;;;;;;;2.35;80.08;100435.47;4912407;29;20036;-73
2022/04/10 03:53:03;;;;;;;4.97;1.60;;;;;;;2.38;80.26;100437.28;4915219;29;20040;-73
2022/04/10 03:55:30;;;;;;;7.22;1.90;;;;;;;2.35;80.24;100435.47;4916553;29;20493;-73
2022/04/10 03:57:58;;;;;;;9.88;2.03;;;;;;;2.41;80.34;100445.16;4916829;29;20518;-73
2022/04/10 04:00:24;;;;;;;8.23;1.60;;;;;;;2.48;80.62;100444.47;4916581;29;20067;-73
2022/04/10 04:02:56;;;;;;;3.97;1.45;;;;;;;2.59;79.92;100442.16;4932093;29;20043;-74
2022/04/10 04:05:25;;;;;;;6.53;1.88;;;;;;;2.66;79.97;100448.41;4916314;29;20051;-73
2022/04/10 04:07:51;;;;;;;6.13;1.58;;;;;;;2.76;79.18;100453.00;4914833;29;20033;-74
2022/04/10 04:10:17;;;;;;;6.60;1.77;;;;;;;2.82;79.09;100447.91;4913617;29;20031;-74
2022/04/10 04:12:42;;;;;;;5.13;1.80;;;;;;;2.83;78.85;100457.53;4930499;29;20561;-73
2022/04/10 04:15:08;;;;;;;8.25;2.17;;;;;;;2.85;78.35;100463.63;4915762;29;20042;-73
2022/04/10 04:17:34;;;;;;;5.15;1.50;;;;;;;2.80;78.39;100465.25;4916158;29;20043;-74
2022/04/10 04:20:01;;;;;;;3.55;1.35;;;;;;;2.89;78.17;100469.81;4915404;29;20041;-73
2022/04/10 04:22:27;;;;;;;8.40;1.70;;;;;;;2.90;77.92;100464.63;4915959;29;20507;-73
2022/04/10 04:24:53;;;;;;;8.38;1.95;;;;;;;2.90;78.35;100471.56;4930844;29;20055;-73
2022/04/10 04:27:19;;;;;;;7.75;2.03;;;;;;;2.95;77.68;100470.81;4930851;29;20119;-73
2022/04/10 04:29:44;;;;;;;4.13;1.50;;;;;;;2.89;77.69;100480.25;4916812;29;20040;-73
2022/04/10 04:32:09;;;;;;;7.97;1.70;;;;;;;2.90;77.73;100476.78;4916897;29;20071;-73
2022/04/10 04:34:35;;;;;;;5.70;1.75;;;;;;;2.93;77.41;100482.06;4924057;29;20067;-73
2022/04/10 04:37:01;;;;;;;4.53;1.20;;;;;;;2.90;77.38;100485.47;4915696;29;20392;-73
2022/04/10 04:39:26;;;;;;;7.82;2.05;;;;;;;2.87;77.67;100484.53;4914167;29;20076;-73
2022/04/10 04:41:52;;;;;;;7.80;2.10;;;;;;;2.89;77.71;100480.25;4915280;29;20051;-74
2022/04/10 04:44:18;;;;;;;10.00;1.90;;;;;;;2.83;77.62;100491.41;4909314;29;20051;-74
2022/04/10 04:46:44;;;;;;;5.88;1.50;;;;;;;2.92;77.49;100494.22;4931162;29;20036;-74
2022/04/10 04:49:09;;;;;;;7.18;1.90;;;;;;;2.83;77.21;100489.69;4915699;29;20039;-74
2022/04/10 04:51:36;;;;;;;5.70;2.13;;;;;;;2.85;77.75;100495.78;4916649;29;20036;-74
2022/04/10 04:54:09;;;;;;;9.65;1.95;;;;;;;2.86;77.45;100499.28;4915509;29;20040;-74
2022/04/10 04:56:35;;;;;;;7.25;1.75;;;;;;;2.81;77.45;100499.16;4910630;29;20044;-74
2022/04/10 04:59:01;;;;;;;7.97;2.00;;;;;;;2.82;77.66;100508.75;4915505;29;20120;-74
2022/04/10 05:01:26;;;;;;;8.38;2.35;;;;;;;2.72;77.64;100508.47;4915605;29;20487;-74
2022/04/10 05:03:52;;;;;;;6.70;1.92;;;;;;;2.68;78.31;100512.75;4915250;29;20059;-74
2022/04/10 05:06:17;;;;;;;10.90;2.55;;;;;;;2.61;78.49;100506.47;4911527;29;20115;-74
2022/04/10 05:08:46;;;;;;;11.07;2.45;;;;;;;2.57;78.71;100517.69;4915174;29;20032;-74
2022/04/10 05:11:13;;;;;;;8.02;2.60;;;;;;;2.57;78.95;100524.63;4915064;29;20103;-74
2022/04/10 05:13:39;;;;;;;5.65;1.80;;;;;;;2.56;78.41;100526.31;4915143;29;20083;-74
2022/04/10 05:16:05;;;;;;;6.45;1.90;;;;;;;2.58;78.60;100532.47;4915089;29;20028;-74
2022/04/10 05:18:35;;;;;;;6.85;2.13;;;;;;;2.62;78.59;100534.31;4915026;29;20040;-74
2022/04/10 05:21:02;;;;;;;7.70;2.03;;;;;;;2.69;78.39;100545.75;4914422;29;20475;-74
2022/04/10 05:23:28;;;;;;;7.10;2.65;;;;;;;2.72;78.03;100545.84;4923329;29;20111;-74
2022/04/10 05:26:02;;;;;;;9.48;2.13;;;;;;;2.78;78.50;100545.13;4925569;29;20071;-74
2022/04/10 05:28:31;;;;;;;4.97;1.92;;;;;;;2.90;77.91;100550.66;4915523;29;20040;-74
2022/04/10 05:30:57;;;;;;;9.57;2.42;;;;;;;3.02;77.42;100555.31;4916350;29;20123;-74
2022/04/10 05:33:29;;;;;;;10.13;2.85;;;;;;;3.17;77.07;100549.56;4930151;29;20036;-74
2022/04/10 05:35:55;;;;;;;9.48;2.70;;;;;;;3.31;76.56;100557.72;4912917;29;20383;-74
2022/04/10 05:38:22;;;;;;;7.78;2.33;;;;;;;3.39;76.12;100556.19;4928244;29;20086;-74
2022/04/10 05:40:52;;;;;;;9.63;1.95;;;;;;;3.43;75.89;100569.34;4927626;29;20032;-74
2022/04/10 05:43:23;;;;;;;5.22;1.85;;;;;;;3.59;75.56;100564.44;4914934;29;20060;-74
2022/04/10 05:45:50;;;;;;;7.43;1.90;;;;;;;3.73;74.84;100565.66;4930278;29;20063;-74
2022/04/10 05:48:16;;;;;;;7.63;2.10;;;;;;;3.98;74.49;100563.56;4913462;29;20039;-74
2022/04/10 05:50:43;;;;;;;7.28;2.03;;;;;;;4.09;73.93;100570.78;4914699;29;20035;-74
2022/04/10 05:53:09;;;;;;;8.63;1.77;;;;;;;4.22;73.09;100568.41;4912481;29;20032;-74
2022/04/10 05:55:38;;;;;;;8.30;2.05;;;;;;;4.26;72.67;100565.88;4913815;29;20411;-74
2022/04/10 05:58:08;;;;;;;6.60;1.80;;;;;;;4.37;72.16;100563.47;4913809;29;20095;-74
2022/04/10 06:00:35;;;;;;;7.10;1.70;;;;;;;4.39;72.08;100567.00;4913355;29;20038;-74
2022/04/10 06:03:08;;;;;;;6.55;1.48;;;;;;;4.50;71.85;100568.09;4911841;29;20032;-74
2022/04/10 06:05:37;;;;;;;6.72;2.13;;;;;;;4.53;71.79;100573.41;4912949;29;20024;-74
2022/04/10 06:08:12;;;;;;;7.82;2.30;;;;;;;4.55;70.90;100578.63;4911533;29;20495;-74
2022/04/10 06:10:37;;;;;;;7.65;1.75;;;;;;;4.62;70.77;100577.91;4915520;29;20038;-74
2022/04/10 06:13:11;;;;;;;7.47;1.83;;;;;;;4.65;70.08;100582.31;4925216;29;20115;-74
2022/04/10 06:15:45;;;;;;;8.30;1.92;;;;;;;4.73;71.00;100588.56;4929703;29;20031;-73
2022/04/10 06:18:11;;;;;;;6.07;1.88;;;;;;;4.69;71.15;100582.41;4912894;29;20036;-73
2022/04/10 06:20:37;;;;;;;6.45;2.22;;;;;;;4.75;70.06;100594.72;4913186;29;20032;-73
2022/04/10 06:23:03;;;;;;;7.35;2.40;;;;;;;4.82;69.97;100589.63;4916250;29;20582;-73
2022/04/10 06:25:29;;;;;;;6.43;2.13;;;;;;;4.77;69.29;100595.63;4913947;29;20039;-74
2022/04/10 06:27:56;;;;;;;7.60;2.63;;;;;;;4.90;69.40;100592.38;4926441;29;20291;-74
2022/04/10 06:30:23;;;;;;;5.97;2.13;;;;;;;5.02;69.27;100592.56;4913060;29;20040;-73
2022/04/10 06:32:54;;;;;;;7.40;2.08;;;;;;;5.15;68.36;100595.41;4911044;29;20028;-73
2022/04/10 06:35:20;;;;;;;7.88;1.88;;;;;;;5.25;68.72;100594.72;4908776;29;20574;-73
2022/04/10 06:37:46;;;;;;;6.63;1.90;;;;;;;5.36;68.80;100598.38;4926770;29;20058;-74
2022/04/10 06:40:12;;;;;;;8.60;1.75;;;;;;;5.44;68.34;100595.88;4925664;29;20527;-74
2022/04/10 06:42:39;;;;;;;8.32;2.08;;;;;;;5.54;67.30;100600.41;4907583;29;20072;-73
2022/04/10 06:45:24;;;;;;;6.15;1.52;;;;;;;5.44;67.36;100601.13;4910495;29;20048;-74
2022/04/10 06:47:55;;;;;;;6.03;2.17;;;;;;;5.34;66.94;100610.53;4913354;29;20102;-73
2022/04/10 06:50:23;;;;;;;6.28;1.58;;;;;;;5.26;67.66;100602.56;4915461;29;20036;-73
2022/04/10 06:52:50;;;;;;;7.20;2.00;;;;;;;5.38;67.54;100604.50;4911975;29;20650;-73
2022/04/10 06:55:17;;;;;;;7.28;2.15;;;;;;;5.38;67.70;100598.41;4908981;29;20562;-73
2022/04/10 06:57:43;;;;;;;6.13;2.10;;;;;;;5.46;67.21;100604.63;4908985;29;20028;-74
2022/04/10 07:00:10;;;;;;;7.80;2.00;;;;;;;5.39;67.65;100608.00;4908865;29;20036;-73
2022/04/10 07:02:37;;;;;;;6.15;1.98;;;;;;;5.38;67.75;100608.88;4929027;29;20032;-74
2022/04/10 07:05:04;;;;;;;11.55;3.17;;;;;;;5.34;67.92;100609.66;4910392;29;20044;-74
2022/04/10 07:07:30;;;;;;;8.25;2.00;;;;;;;5.34;68.06;100614.91;4924736;29;20027;-74
2022/04/10 07:09:56;;;;;;;7.53;2.35;;;;;;;5.36;68.05;100607.97;4914987;29;20036;-73
2022/04/10 07:12:23;;;;;;;6.15;1.80;;;;;;;5.40;67.55;100617.66;4913159;29;20064;-73
2022/04/10 07:14:51;;;;;;;8.25;2.15;;;;;;;5.49;67.68;100618.66;4912065;29;20072;-73
2022/04/10 07:17:17;;;;;;;9.82;2.13;;;;;;;5.69;67.09;100608.50;4912816;29;20028;-73
2022/04/10 07:19:45;;;;;;;5.05;1.83;;;;;;;5.62;66.42;100632.81;4910947;29;20028;-73
2022/04/10 07:24:56;;;;;;;8.88;2.20;;;;;;;5.69;67.21;100618.09;4913852;29;20039;-74
2022/04/10 07:27:22;;;;;;;6.10;1.80;;;;;;;5.77;66.62;100621.69;4916052;29;20038;-74
2022/04/10 07:30:02;;;;;;;4.70;1.83;;;;;;;5.88;65.27;100616.63;4928487;29;20035;-73
2022/04/10 07:32:32;;;;;;;7.30;1.92;;;;;;;5.82;65.71;100629.63;4914548;29;20531;-74
2022/04/10 07:35:03;;;;;;;6.00;1.98;;;;;;;5.76;65.18;100629.53;4914986;29;20115;-74
2022/04/10 07:37:39;;;;;;;8.82;1.83;;;;;;;5.86;65.62;100636.66;4915284;29;20539;-73
2022/04/10 07:40:06;;;;;;;8.75;2.10;;;;;;;5.93;65.81;100623.72;4915277;29;20040;-73
2022/04/10 07:42:38;;;;;;;9.07;2.10;;;;;;;6.05;65.14;100636.13;4914532;29;20116;-74
2022/04/10 07:45:05;;;;;;;13.02;2.40;;;;;;;6.00;64.28;100643.03;4916026;29;20406;-74
2022/04/10 07:47:51;;;;;;;8.68;1.90;;;;;;;6.03;63.55;100640.44;4932440;29;20649;-74
2022/04/10 07:50:17;;;;;;;8.63;2.63;;;;;;;5.93;64.07;100641.13;4916564;29;20799;-73
2022/04/10 07:52:43;;;;;;;8.45;2.05;;;;;;;6.07;63.32;100650.09;4927281;29;20040;-73
2022/04/10 07:55:18;;;;;;;8.93;2.50;;;;;;;6.06;63.21;100663.19;4915484;29;20032;-73
2022/04/10 07:57:46;;;;;;;10.68;2.22;;;;;;;6.02;63.35;100649.16;4911956;29;20025;-73
2022/04/10 08:00:13;;;;;;;9.15;2.33;;;;;;;5.98;63.20;100655.22;4914843;29;20096;-73
2022/04/10 08:02:46;;;;;;;9.07;2.10;;;;;;;5.97;63.57;100665.66;4914418;29;20032;-74
2022/04/10 08:05:22;;;;;;;7.35;1.65;;;;;;;6.14;62.63;100649.34;4913940;29;20067;-73
2022/04/10 08:08:11;;;;;;;8.00;2.03;;;;;;;6.32;63.11;100663.56;4911931;29;20051;-73
2022/04/10 08:10:37;;;;;;;8.20;2.22;;;;;;;6.42;62.47;100660.19;4911248;29;20092;-74
2022/04/10 08:13:03;;;;;;;7.63;2.42;;;;;;;6.41;61.35;100670.66;4916311;29;20040;-73
2022/04/10 08:15:28;;;;;;;10.35;2.72;;;;;;;6.65;60.96;100662.19;4916968;29;20487;-73
2022/04/10 08:17:56;;;;;;;12.43;2.35;;;;;;;6.55;59.85;100677.84;4915032;29;20094;-73
2022/04/10 08:20:22;;;;;;;7.05;2.25;;;;;;;6.48;59.97;100667.25;4917221;29;20127;-74
2022/04/10 08:22:49;;;;;;;11.75;2.42;;;;;;;6.61;59.92;100677.03;4912567;29;20063;-73
2022/04/10 08:25:16;;;;;;;8.65;2.47;;;;;;;6.53;60.97;100669.06;4916708;29;20055;-74
2022/04/10 08:27:42;;;;;;;8.80;2.92;;;;;;;6.66;60.28;100680.59;4916312;29;20119;-74
2022/04/10 08:30:09;;;;;;;9.35;2.42;;;;;;;6.78;59.70;100672.84;4917129;29;20562;-74
2022/04/10 08:32:36;;;;;;;7.85;2.03;;;;;;;6.75;58.45;100679.81;4916626;29;20036;-74
2022/04/10 08:35:02;;;;;;;7.85;1.90;;;;;;;6.75;59.01;100690.31;4912930;29;20036;-74
2022/04/10 08:37:27;;;;;;;11.57;3.25;;;;;;;6.54;59.06;100683.06;4912670;29;20040;-74
2022/04/10 08:39:53;;;;;;;11.85;3.08;;;;;;;6.53;59.05;100695.28;4914196;29;20075;-74
2022/04/10 08:42:20;;;;;;;11.88;2.90;;;;;;;6.33;58.82;100688.91;4915810;29;20040;-74
2022/04/10 08:44:46;;;;;;;12.20;3.42;;;;;;;6.10;59.24;100693.81;4916486;29;20040;-74
2022/04/10 08:47:14;;;;;;;9.85;2.42;;;;;;;5.98;60.33;100683.16;4914247;29;20039;-74
2022/04/10 08:49:39;;;;;;;11.15;2.45;;;;;;;5.99;60.36;100706.75;4915129;29;20047;-74
2022/04/10 08:52:05;;;;;;;7.90;2.83;;;;;;;6.07;60.43;100699.88;4916495;29;20036;-74
2022/04/10 08:54:33;;;;;;;13.50;2.60;;;;;;;6.13;60.30;100712.19;4912881;29;20037;-74
2022/04/10 08:56:59;;;;;;;9.75;2.30;;;;;;;6.18;59.92;100717.50;4915272;29;20063;-73
2022/04/10 08:59:24;;;;;;;11.65;2.92;;;;;;;6.25;59.25;100720.25;4914819;29;20044;-74
2022/04/10 09:01:56;;;;;;;11.43;2.55;;;;;;;6.44;60.02;100707.38;4916122;29;20115;-72
2022/04/10 09:04:23;;;;;;;8.80;1.90;;;;;;;6.41;58.54;100721.34;4930791;29;20040;-73
2022/04/10 09:07:03;;;;;;;7.68;2.50;;;;;;;6.50;58.86;100715.34;4916249;29;20491;-73
2022/04/10 09:09:29;;;;;;;10.20;2.88;;;;;;;6.88;58.17;100710.56;4910874;29;20059;-73
2022/04/10 09:11:55;;;;;;;7.35;2.42;;;;;;;6.99;56.62;100700.19;4913235;29;20159;-72
2022/04/10 09:14:25;;;;;;;9.35;2.25;;;;;;;6.89;56.57;100714.97;4915096;29;20028;-73
2022/04/10 09:17:10;;;;;;;8.98;2.72;;;;;;;7.09;57.15;100690.69;4914981;29;20122;-72
2022/04/10 09:19:36;;;;;;;8.32;2.45;;;;;;;7.33;54.96;100693.53;4915584;29;20047;-73
2022/04/10 09:22:38;;;;;;;11.07;2.38;;;;;;;7.64;53.33;100685.94;4913497;29;20567;-72
2022/04/10 09:25:17;;;;;;;9.68;2.30;;;;;;;8.07;52.22;100702.06;4915806;29;20042;-73
2022/04/10 09:27:45;;;;;;;11.75;3.42;;;;;;;7.67;51.43;100691.22;4912490;29;20119;-73
2022/04/10 09:30:13;;;;;;;8.20;2.35;;;;;;;7.54;52.79;100706.00;4923302;29;20076;-73
2022/04/10 09:32:50;;;;;;;8.38;1.83;;;;;;;7.50;52.19;100719.97;4913156;29;20503;-73
2022/04/10 09:35:16;;;;;;;7.88;2.35;;;;;;;7.49;51.69;100702.44;4915733;29;20388;-73
2022/04/10 09:37:47;;;;;;;10.25;2.42;;;;;;;7.42;53.00;100703.28;4915590;29;20052;-74
2022/04/10 09:40:39;;;;;;;11.52;2.63;;;;;;;7.33;55.83;100717.19;4908792;29;20047;-74
2022/04/10 09:43:05;;;;;;;9.07;2.95;;;;;;;7.03;59.99;100716.00;4909973;29;20414;-74
2022/04/10 09:45:36;;;;;;;8.52;2.70;;;;;;;6.85;61.99;100728.03;4914112;29;20474;-73
2022/04/10 09:48:23;;;;;;;7.63;2.67;;;;;;;6.82;64.06;100738.50;4915347;29;20189;-73
2022/04/10 09:50:52;;;;;;;10.43;2.60;;;;;;;6.83;64.05;100719.25;4912754;29;20047;-74
2022/04/10 09:53:17;;;;;;;7.03;2.00;;;;;;;6.78;64.49;100734.94;4915311;29;20427;-73
2022/04/10 09:55:43;;;;;;;7.63;2.13;;;;;;;6.91;64.99;100717.59;4914704;29;20040;-73
2022/04/10 09:58:13;;;;;;;12.95;2.80;;;;;;;6.89;64.64;100712.34;4911805;29;20040;-73
2022/04/10 10:00:44;;;;;;;8.23;2.80;;;;;;;6.86;64.82;100720.16;4915502;29;20054;-73
2022/04/10 10:03:10;;;;;;;14.63;3.05;;;;;;;7.33;65.34;100706.69;4913596;29;20076;-73
2022/04/10 10:05:37;;;;;;;8.15;2.78;;;;;;;7.58;63.41;100713.06;4913862;29;20064;-73
2022/04/10 10:08:04;;;;;;;13.48;3.30;;;;;;;7.78;62.49;100710.59;4913657;29;20051;-72
2022/04/10 10:10:31;;;;;;;11.10;3.47;;;;;;;8.21;60.70;100695.13;4914186;29;20028;-72
2022/04/10 10:13:00;;;;;;;11.02;2.88;;;;;;;8.09;60.84;100698.53;4913174;29;20455;-73
2022/04/10 10:15:26;;;;;;;9.00;3.15;;;;;;;7.84;61.56;100701.88;4914081;29;20115;-73
2022/04/10 10:17:52;;;;;;;12.23;2.47;;;;;;;7.50;61.71;100724.38;4914155;29;20079;-72
2022/04/10 10:20:20;;;;;;;10.82;2.58;;;;;;;6.47;63.38;100700.47;4911956;29;20131;-73
2022/04/10 10:22:45;;;;;;;13.23;2.88;;;;;;;5.95;66.26;100725.91;4914738;29;20043;-74
2022/04/10 10:25:27;;;;;;;10.27;2.40;;;;;;;5.51;68.39;100720.78;4914683;29;20176;-74
2022/04/10 10:27:58;;;;;;;11.48;2.60;;;;;;;5.65;69.23;100697.44;4912160;29;20440;-74
2022/04/10 10:30:24;;;;;;;9.55;3.55;;;;;;;6.10;70.92;100699.94;4914815;29;20047;-74
2022/04/10 10:32:55;;;;;;;10.38;2.97;;;;;;;6.66;69.03;100695.47;4911876;29;20098;-74
2022/04/10 10:35:38;;;;;;;11.68;3.47;;;;;;;7.08;67.89;100688.94;4925848;29;20036;-73
2022/04/10 10:38:25;;;;;;;13.15;2.80;;;;;;;7.17;65.69;100676.75;4914590;29;20039;-74
2022/04/10 10:40:52;;;;;;;12.20;2.20;;;;;;;7.36;64.88;100680.47;4911134;29;20103;-75
2022/04/10 10:43:27;;;;;;;8.30;2.45;;;;;;;7.34;61.49;100699.72;4912304;29;20131;-74
2022/04/10 10:45:52;;;;;;;11.48;2.75;;;;;;;7.47;58.36;100698.94;4914717;29;20032;-74
2022/04/10 10:48:32;;;;;;;12.98;2.30;;;;;;;7.74;58.73;100682.53;4914807;29;20036;-74
2022/04/10 10:51:23;;;;;;;10.90;2.40;;;;;;;7.87;57.78;100697.53;4912018;29;20044;-74
2022/04/10 10:53:53;;;;;;;11.98;2.63;;;;;;;7.85;57.12;100704.50;4905171;29;20044;-74
2022/04/10 10:56:31;;;;;;;12.50;4.15;;;;;;;7.73;58.41;100700.91;4914503;29;20491;-75
2022/04/10 10:59:33;;;;;;;11.70;2.35;;;;;;;7.17;62.99;100724.00;4911927;29;20040;-74
2022/04/10 11:02:07;;;;;;;8.40;2.50;;;;;;;6.76;66.87;100718.31;4916767;29;20190;-75
2022/04/10 11:04:34;;;;;;;9.23;2.42;;;;;;;6.29;68.24;100748.28;4915360;29;20047;-75
2022/04/10 11:07:21;;;;;;;9.82;2.92;;;;;;;5.56;70.99;100765.38;4918816;29;20064;-74
2022/04/10 11:09:47;;;;;;;7.15;2.85;;;;;;;5.17;75.08;100729.75;4916415;29;20376;-74
2022/04/10 11:12:13;;;;;;;10.45;3.20;;;;;;;4.95;76.70;100721.50;4918343;29;20046;-74
2022/04/10 11:14:40;;;;;;;8.45;2.10;;;;;;;4.76;77.19;100714.13;4918507;29;20048;-74
2022/04/10 11:17:25;;;;;;;7.63;3.33;;;;;;;4.72;78.24;100713.19;4918072;29;20036;-74
2022/04/10 11:19:56;;;;;;;12.07;3.50;;;;;;;4.98;78.49;100712.84;4915094;29;20044;-74
2022/04/10 11:22:30;;;;;;;9.13;3.17;;;;;;;5.23;75.90;100711.53;4918310;29;20091;-73
2022/04/10 11:25:00;;;;;;;14.43;2.78;;;;;;;5.56;74.67;100706.03;4918382;29;20043;-73
2022/04/10 11:27:42;;;;;;;13.38;2.85;;;;;;;6.09;74.97;100692.94;4918422;29;20043;-73
2022/04/10 11:30:08;;;;;;;11.13;3.13;;;;;;;6.61;71.04;100687.53;4915330;29;20048;-73
2022/04/10 11:32:43;;;;;;;9.77;2.63;;;;;;;7.19;69.08;100680.28;4918169;29;20291;-73
2022/04/10 11:35:17;;;;;;;9.15;2.90;;;;;;;7.93;68.68;100677.41;4918098;29;20054;-72
2022/04/10 11:37:46;;;;;;;12.02;2.75;;;;;;;8.42;63.91;100693.53;4918089;29;20099;-72
2022/04/10 11:40:12;;;;;;;9.02;2.30;;;;;;;8.45;59.78;100698.81;4914498;29;20437;-72